createdAt,value
2019-02-24T00:00:05.094Z,51.97
2019-02-24T00:02:40.069Z,51.97
2019-02-24T00:05:23.727Z,53.02
2019-02-24T00:08:01.937Z,51.54
2019-02-24T00:10:35.991Z,52.04
2019-02-24T00:13:18.534Z,52.03
2019-02-24T00:16:05.357Z,52.96
2019-02-24T00:18:35.229Z,52.95
2019-02-24T00:21:04.905Z,53.02
2019-02-24T00:23:42.471Z,53.01
2019-02-24T00:26:12.334Z,53.58
2019-02-24T00:28:43.067Z,53.77
2019-02-24T00:31:19.785Z,53.16
2019-02-24T00:33:56.455Z,53.85
2019-02-24T00:36:46.305Z,54.08
2019-02-24T00:39:18.938Z,54.32
2019-02-24T00:42:19.215Z,55.07
2019-02-24T00:44:55.111Z,55.10
2019-02-24T00:47:32.809Z,54.90
2019-02-24T00:50:16.182Z,55.04
2019-02-24T00:53:09.033Z,54.72
2019-02-24T00:55:50.544Z,54.79
2019-02-24T00:58:47.314Z,55.39
2019-02-24T01:01:24.674Z,56.26
2019-02-24T01:04:09.651Z,56.20
2019-02-24T01:07:01.278Z,55.59
2019-02-24T01:12:50.658Z,56.75
2019-02-24T01:15:44.721Z,56.65
2019-02-24T01:18:23.092Z,56.43
2019-02-24T01:21:02.699Z,56.54
2019-02-24T01:24:02.106Z,56.76
2019-02-24T01:26:33.170Z,56.60
2019-02-24T01:29:16.403Z,56.62
2019-02-24T01:31:57.580Z,56.75
2019-02-24T01:34:37.246Z,57.05
2019-02-24T01:37:16.175Z,57.47
2019-02-24T01:39:56.357Z,56.63
2019-02-24T01:46:05.836Z,57.31
2019-02-24T01:49:05.701Z,56.99
2019-02-24T01:51:58.214Z,56.96
2019-02-24T02:03:35.312Z,57.36
2019-02-24T02:12:18.417Z,58.19
2019-02-24T02:15:06.753Z,58.13
2019-02-24T02:27:01.668Z,58.72
2019-02-24T02:32:58.951Z,58.29
2019-02-24T02:35:32.698Z,58.54
2019-02-24T02:38:37.651Z,58.59
2019-02-24T03:05:56.216Z,58.68
2019-02-24T03:08:47.444Z,58.88
2019-02-24T03:11:32.293Z,58.58
2019-02-24T03:14:44.084Z,59.67
2019-02-24T03:20:48.717Z,59.20
2019-02-24T03:26:44.076Z,59.59
2019-02-24T03:32:25.484Z,59.76
2019-02-24T03:35:05.923Z,59.84
2019-02-24T03:37:47.479Z,60.24
2019-02-24T03:40:37.069Z,60.31
2019-02-24T03:43:24.261Z,59.38
2019-02-24T03:49:15.110Z,59.84
2019-02-24T03:51:54.472Z,59.87
2019-02-24T04:20:48.700Z,61.20
2019-02-24T04:26:49.154Z,61.88
2019-02-24T04:29:39.472Z,61.37
2019-02-24T04:39:34.102Z,61.12
2019-02-24T04:46:00.570Z,61.19
2019-02-24T04:55:40.242Z,62.45
2019-02-24T04:58:21.887Z,62.64
2019-02-24T05:53:26.190Z,63.02
2019-02-24T06:05:24.892Z,62.51
2019-02-24T06:08:06.160Z,62.26
2019-02-24T06:17:02.964Z,66.13
2019-02-24T06:19:35.690Z,57.06
2019-02-24T06:22:07.850Z,56.67
2019-02-24T06:38:29.922Z,61.62
2019-02-24T06:41:17.940Z,61.22
2019-02-24T06:43:52.972Z,59.65
2019-02-24T06:46:31.983Z,57.79
2019-02-24T06:49:02.362Z,56.83
2019-02-24T06:51:32.555Z,55.77
2019-02-24T06:54:02.372Z,60.91
2019-02-24T06:56:32.118Z,52.63
2019-02-24T06:59:02.640Z,49.76
2019-02-24T07:01:32.526Z,48.46
2019-02-24T07:04:02.339Z,47.42
2019-02-24T07:06:32.108Z,47.04
2019-02-24T07:09:01.896Z,48.25
2019-02-24T07:11:31.660Z,49.14
2019-02-24T07:14:01.472Z,50.07
2019-02-24T07:16:34.332Z,50.21
2019-02-24T07:19:04.131Z,49.18
2019-02-24T07:21:33.900Z,48.45
2019-02-24T07:24:03.725Z,48.11
2019-02-24T07:26:33.453Z,46.33
2019-02-24T07:29:03.149Z,45.23
2019-02-24T07:31:32.951Z,45.20
2019-02-24T07:34:03.104Z,44.78
2019-02-24T07:36:32.919Z,44.38
2019-02-24T07:39:04.018Z,43.37
2019-02-24T07:41:34.143Z,43.22
2019-02-24T07:44:04.059Z,43.22
2019-02-24T07:46:33.875Z,43.16
2019-02-24T07:49:03.747Z,43.16
2019-02-24T07:51:33.674Z,51.21
2019-02-24T07:54:04.701Z,51.21
2019-02-24T07:56:34.547Z,48.61
2019-02-24T07:59:04.376Z,45.73
2019-02-24T08:01:34.827Z,45.73
2019-02-24T08:04:05.325Z,43.56
2019-02-24T08:06:35.123Z,43.56
2019-02-24T08:09:05.425Z,41.62
2019-02-24T08:11:35.151Z,41.01
2019-02-24T08:14:05.033Z,40.69
2019-02-24T08:16:34.736Z,40.17
2019-02-24T08:19:04.502Z,40.29
2019-02-24T08:21:34.266Z,40.29
2019-02-24T08:24:04.154Z,40.61
2019-02-24T08:26:35.411Z,40.83
2019-02-24T08:29:05.194Z,40.83
2019-02-24T08:31:34.961Z,41.81
2019-02-24T08:34:04.781Z,40.54
2019-02-24T08:36:34.551Z,40.81
2019-02-24T08:39:05.546Z,40.65
2019-02-24T08:41:35.393Z,40.88
2019-02-24T08:44:05.261Z,40.71
2019-02-24T08:46:36.657Z,39.92
2019-02-24T08:49:09.267Z,40.22
2019-02-24T08:51:39.310Z,40.23
2019-02-24T08:54:09.084Z,39.78
2019-02-24T08:56:38.860Z,39.14
2019-02-24T08:59:09.471Z,39.14
2019-02-24T09:01:39.231Z,38.43
2019-02-24T09:04:09.992Z,42.88
2019-02-24T09:06:39.811Z,38.20
2019-02-24T09:09:09.483Z,36.50
2019-02-24T09:11:42.290Z,35.08
2019-02-24T09:14:12.127Z,34.62
2019-02-24T09:16:41.886Z,33.85
2019-02-24T09:19:11.787Z,33.83
2019-02-24T09:21:41.549Z,32.43
2019-02-24T09:24:11.330Z,31.87
2019-02-24T09:26:41.146Z,31.61
2019-02-24T09:29:10.952Z,31.19
2019-02-24T09:31:40.948Z,31.26
2019-02-24T09:34:11.360Z,31.14
2019-02-24T09:36:41.185Z,31.26
2019-02-24T09:39:11.120Z,31.70
2019-02-24T09:41:40.970Z,31.56
2019-02-24T09:44:11.048Z,31.31
2019-02-24T09:46:42.832Z,31.09
2019-02-24T09:49:12.494Z,30.67
2019-02-24T09:51:43.538Z,31.27
2019-02-24T09:54:13.360Z,31.37
2019-02-24T09:56:43.519Z,31.50
2019-02-24T09:59:13.322Z,32.10
2019-02-24T10:01:43.111Z,31.32
2019-02-24T10:04:12.942Z,32.07
2019-02-24T10:06:42.725Z,31.74
2019-02-24T10:09:12.493Z,32.35
2019-02-24T10:11:42.974Z,32.08
2019-02-24T10:14:12.693Z,31.77
2019-02-24T10:16:42.508Z,32.01
2019-02-24T10:19:12.349Z,32.28
2019-02-24T10:21:42.152Z,31.80
2019-02-24T10:24:11.937Z,32.11
2019-02-24T10:26:41.737Z,32.78
2019-02-24T10:29:11.521Z,32.53
2019-02-24T10:31:41.292Z,32.28
2019-02-24T10:34:12.654Z,32.58
2019-02-24T10:36:42.513Z,32.28
2019-02-24T10:39:13.217Z,32.89
2019-02-24T10:41:43.102Z,33.34
2019-02-24T10:44:12.926Z,33.54
2019-02-24T10:46:42.878Z,33.37
2019-02-24T10:49:12.574Z,33.50
2019-02-24T10:51:45.158Z,33.35
2019-02-24T10:54:14.901Z,33.35
2019-02-24T10:56:44.784Z,33.32
2019-02-24T10:59:14.532Z,33.32
2019-02-24T11:01:45.226Z,33.85
2019-02-24T11:04:15.299Z,34.64
2019-02-24T11:06:45.092Z,34.64
2019-02-24T11:09:16.959Z,34.84
2019-02-24T11:11:46.690Z,34.45
2019-02-24T11:14:16.748Z,34.49
2019-02-24T11:16:46.577Z,34.57
2019-02-24T11:19:17.283Z,34.45
2019-02-24T11:21:47.059Z,34.32
2019-02-24T11:24:16.881Z,35.06
2019-02-24T11:26:46.826Z,34.04
2019-02-24T11:29:16.626Z,33.91
2019-02-24T11:31:46.369Z,34.17
2019-02-24T11:34:16.414Z,34.05
2019-02-24T11:36:46.214Z,33.69
2019-02-24T11:39:16.336Z,33.57
2019-02-24T11:41:46.104Z,33.19
2019-02-24T11:44:15.912Z,33.08
2019-02-24T11:46:46.534Z,32.82
2019-02-24T11:49:16.325Z,32.93
2019-02-24T11:51:46.125Z,32.73
2019-02-24T11:54:15.934Z,32.80
2019-02-24T11:56:47.378Z,33.00
2019-02-24T11:59:17.145Z,32.66
2019-02-24T12:01:47.795Z,33.10
2019-02-24T12:04:18.824Z,32.86
2019-02-24T12:06:48.695Z,36.94
2019-02-24T12:09:18.478Z,38.59
2019-02-24T12:11:48.294Z,33.08
2019-02-24T12:14:18.057Z,32.51
2019-02-24T12:16:47.918Z,32.83
2019-02-24T12:19:17.826Z,32.68
2019-02-24T12:21:47.566Z,32.87
2019-02-24T12:24:17.199Z,32.75
2019-02-24T12:26:47.046Z,32.73
2019-02-24T12:29:16.828Z,32.51
2019-02-24T12:31:46.740Z,32.33
2019-02-24T12:34:16.578Z,32.72
2019-02-24T12:36:46.422Z,32.58
2019-02-24T12:39:16.301Z,32.74
2019-02-24T12:41:46.069Z,33.04
2019-02-24T12:44:16.094Z,33.55
2019-02-24T12:46:45.845Z,33.62
2019-02-24T12:49:17.039Z,33.35
2019-02-24T12:51:46.912Z,32.83
2019-02-24T12:54:16.740Z,32.55
2019-02-24T12:56:46.566Z,32.57
2019-02-24T12:59:17.405Z,32.34
2019-02-24T13:01:48.098Z,32.38
2019-02-24T13:04:17.889Z,33.34
2019-02-24T13:06:48.538Z,33.12
2019-02-24T13:09:19.651Z,32.79
2019-02-24T13:11:49.566Z,32.12
2019-02-24T13:14:19.384Z,32.47
2019-02-24T13:16:49.178Z,32.50
2019-02-24T13:19:20.791Z,32.13
2019-02-24T13:21:50.632Z,32.16
2019-02-24T13:24:21.360Z,37.97
2019-02-24T13:26:51.246Z,38.52
2019-02-24T13:29:21.065Z,36.17
2019-02-24T13:31:51.034Z,32.23
2019-02-24T13:34:21.326Z,32.59
2019-02-24T13:36:51.084Z,32.03
2019-02-24T13:39:20.744Z,31.52
2019-02-24T13:41:52.536Z,31.26
2019-02-24T13:44:22.659Z,31.65
2019-02-24T13:46:53.014Z,32.00
2019-02-24T13:49:23.765Z,31.62
2019-02-24T13:51:54.556Z,31.51
2019-02-24T13:54:24.353Z,31.26
2019-02-24T13:56:54.173Z,31.32
2019-02-24T13:59:24.000Z,31.25
2019-02-24T14:01:53.834Z,31.15
2019-02-24T14:04:23.717Z,31.15
2019-02-24T14:06:53.496Z,30.88
2019-02-24T14:09:23.306Z,30.70
2019-02-24T14:11:53.070Z,30.67
2019-02-24T14:14:22.881Z,34.84
2019-02-24T14:16:54.149Z,33.84
2019-02-24T14:19:24.261Z,32.02
2019-02-24T14:21:54.636Z,32.15
2019-02-24T14:24:25.320Z,31.67
2019-02-24T14:26:55.002Z,34.58
2019-02-24T14:29:24.796Z,36.30
2019-02-24T14:31:54.641Z,33.50
2019-02-24T14:34:24.518Z,32.56
2019-02-24T14:36:54.329Z,32.82
2019-02-24T14:39:24.127Z,32.94
2019-02-24T14:41:55.157Z,31.51
2019-02-24T14:44:27.756Z,31.42
2019-02-24T14:46:57.544Z,33.44
2019-02-24T14:49:27.338Z,33.71
2019-02-24T14:51:57.159Z,31.89
2019-02-24T14:54:26.912Z,31.32
2019-02-24T14:56:56.733Z,30.39
2019-02-24T14:59:26.493Z,30.57
2019-02-24T15:01:56.327Z,30.75
2019-02-24T15:04:26.250Z,31.05
2019-02-24T15:06:56.010Z,31.47
2019-02-24T15:09:25.805Z,31.77
2019-02-24T15:11:55.561Z,32.17
2019-02-24T15:14:25.401Z,32.42
2019-02-24T15:16:55.272Z,32.54
2019-02-24T15:19:25.018Z,32.33
2019-02-24T15:21:54.882Z,32.46
2019-02-24T15:24:24.752Z,32.63
2019-02-24T15:26:54.561Z,33.15
2019-02-24T15:29:24.337Z,33.60
2019-02-24T15:31:54.198Z,33.30
2019-02-24T15:34:24.042Z,33.59
2019-02-24T15:36:53.782Z,33.67
2019-02-24T15:39:23.533Z,33.38
2019-02-24T15:41:53.810Z,33.50
2019-02-24T15:44:23.644Z,33.68
2019-02-24T15:46:55.068Z,33.66
2019-02-24T15:49:24.890Z,33.43
2019-02-24T15:51:54.632Z,33.20
2019-02-24T15:54:24.588Z,33.05
2019-02-24T15:56:54.511Z,33.17
2019-02-24T15:59:24.305Z,35.26
2019-02-24T16:01:54.093Z,34.65
2019-02-24T16:04:24.198Z,33.00
2019-02-24T16:06:54.012Z,32.90
2019-02-24T16:09:23.755Z,32.45
2019-02-24T16:11:53.535Z,32.60
2019-02-24T16:14:23.416Z,32.49
2019-02-24T16:16:53.157Z,32.73
2019-02-24T16:19:23.547Z,33.63
2019-02-24T16:21:53.775Z,33.66
2019-02-24T16:24:23.555Z,33.50
2019-02-24T16:26:53.419Z,33.64
2019-02-24T16:29:23.212Z,34.05
2019-02-24T16:31:54.736Z,33.74
2019-02-24T16:34:24.913Z,33.28
2019-02-24T16:36:54.673Z,33.43
2019-02-24T16:39:24.842Z,34.90
2019-02-24T16:41:56.581Z,34.23
2019-02-24T16:44:26.348Z,33.11
2019-02-24T16:46:56.427Z,34.52
2019-02-24T16:49:28.949Z,33.90
2019-02-24T16:51:58.717Z,33.65
2019-02-24T16:54:28.532Z,34.01
2019-02-24T16:57:04.772Z,34.42
2019-02-24T16:59:40.470Z,35.01
2019-02-24T17:02:10.236Z,34.32
2019-02-24T17:04:40.097Z,35.30
2019-02-24T17:07:10.295Z,36.12
2019-02-24T17:09:40.004Z,36.44
2019-02-24T17:12:09.853Z,36.74
2019-02-24T17:14:40.630Z,35.11
2019-02-24T17:17:10.433Z,35.09
2019-02-24T17:19:41.230Z,45.24
2019-02-24T17:22:11.005Z,32.68
2019-02-24T17:24:40.804Z,32.30
2019-02-24T17:27:10.938Z,34.17
2019-02-24T17:29:40.683Z,33.39
2019-02-24T17:32:10.961Z,33.23
2019-02-24T17:34:40.830Z,33.26
2019-02-24T17:37:19.782Z,33.21
2019-02-24T17:39:43.470Z,33.33
2019-02-24T17:42:13.587Z,33.11
2019-02-24T17:44:43.330Z,33.08
2019-02-24T17:47:13.197Z,33.14
2019-02-24T17:49:43.336Z,32.75
2019-02-24T17:52:14.241Z,33.02
2019-02-24T17:54:44.099Z,32.28
2019-02-24T17:57:14.334Z,32.01
2019-02-24T17:59:44.122Z,31.84
2019-02-24T18:02:15.548Z,31.38
2019-02-24T18:04:45.319Z,31.38
2019-02-24T18:07:15.130Z,31.57
2019-02-24T18:09:45.280Z,32.07
2019-02-24T18:12:15.231Z,33.13
2019-02-24T18:14:45.014Z,33.61
2019-02-24T18:17:23.807Z,33.72
2019-02-24T18:19:56.468Z,34.33
2019-02-24T18:22:26.545Z,34.59
2019-02-24T18:25:02.932Z,34.69
2019-02-24T18:27:28.894Z,35.00
2019-02-24T18:29:58.727Z,35.92
2019-02-24T18:32:28.705Z,35.61
2019-02-24T18:35:00.317Z,36.69
2019-02-24T18:37:30.197Z,43.10
2019-02-24T18:40:01.133Z,43.00
2019-02-24T18:42:31.974Z,37.08
2019-02-24T18:45:01.820Z,35.28
2019-02-24T18:47:31.613Z,36.05
2019-02-24T18:50:01.839Z,36.15
2019-02-24T18:52:31.854Z,35.63
2019-02-24T18:55:02.033Z,36.37
2019-02-24T18:57:34.027Z,37.15
2019-02-24T19:00:04.693Z,38.06
2019-02-24T19:02:34.481Z,37.25
2019-02-24T19:05:06.950Z,37.61
2019-02-24T19:07:36.724Z,37.64
2019-02-24T19:10:12.604Z,38.25
2019-02-24T19:12:42.924Z,36.87
2019-02-24T19:15:15.107Z,37.03
2019-02-24T19:17:44.905Z,36.61
2019-02-24T19:20:18.509Z,36.24
2019-02-24T19:22:48.504Z,34.30
2019-02-24T19:25:24.896Z,34.63
2019-02-24T19:27:55.674Z,35.32
2019-02-24T19:30:27.106Z,33.79
2019-02-24T19:33:00.347Z,34.39
2019-02-24T19:35:30.209Z,35.08
2019-02-24T19:38:01.404Z,34.34
2019-02-24T19:40:32.393Z,33.78
2019-02-24T19:43:02.629Z,33.59
2019-02-24T19:45:34.684Z,33.63
2019-02-24T19:48:06.210Z,32.70
2019-02-24T19:50:41.664Z,32.30
2019-02-24T19:53:13.977Z,31.93
2019-02-24T19:55:43.766Z,33.02
2019-02-24T19:58:14.665Z,35.11
2019-02-24T20:00:49.392Z,31.93
2019-02-24T20:03:19.641Z,31.33
2019-02-24T20:05:49.516Z,30.50
2019-02-24T20:08:25.011Z,30.83
2019-02-24T20:10:55.276Z,33.68
2019-02-24T20:13:26.069Z,32.91
2019-02-24T20:15:56.281Z,31.41
2019-02-24T20:18:26.052Z,31.61
2019-02-24T20:20:55.848Z,32.58
2019-02-24T20:23:25.625Z,33.62
2019-02-24T20:25:56.684Z,33.31
2019-02-24T20:28:28.813Z,32.16
2019-02-24T20:31:09.422Z,33.08
2019-02-24T20:33:40.226Z,32.67
2019-02-24T20:36:10.041Z,34.70
2019-02-24T20:38:39.933Z,34.38
2019-02-24T20:41:10.154Z,33.63
2019-02-24T20:43:41.465Z,34.10
2019-02-24T20:46:12.125Z,35.36
2019-02-24T20:48:41.970Z,34.62
2019-02-24T20:51:11.771Z,35.50
2019-02-24T20:53:41.559Z,37.23
2019-02-24T20:56:11.530Z,36.17
2019-02-24T20:58:42.356Z,34.82
2019-02-24T21:01:12.043Z,33.72
2019-02-24T21:03:41.893Z,32.47
2019-02-24T21:06:11.672Z,35.03
2019-02-24T21:08:42.959Z,36.52
2019-02-24T21:11:12.826Z,36.89
2019-02-24T21:13:42.795Z,37.84
2019-02-24T21:16:12.513Z,38.05
2019-02-24T21:18:43.063Z,38.42
2019-02-24T21:21:12.863Z,38.66
2019-02-24T21:23:42.678Z,39.14
2019-02-24T21:26:12.547Z,39.64
2019-02-24T21:28:42.345Z,40.32
2019-02-24T21:31:12.062Z,40.14
2019-02-24T21:33:41.818Z,39.77
2019-02-24T21:36:11.698Z,39.69
2019-02-24T21:38:41.467Z,39.37
2019-02-24T21:41:11.252Z,39.40
2019-02-24T21:43:41.066Z,39.87
2019-02-24T21:46:10.855Z,40.10
2019-02-24T21:48:40.602Z,40.25
2019-02-24T21:51:11.594Z,40.46
2019-02-24T21:53:41.436Z,40.48
2019-02-24T21:56:11.201Z,41.04
2019-02-24T21:58:41.072Z,40.79
2019-02-24T22:01:10.960Z,40.92
2019-02-24T22:03:40.755Z,42.60
2019-02-24T22:06:10.546Z,42.54
2019-02-24T22:08:40.322Z,44.97
2019-02-24T22:11:10.101Z,41.86
2019-02-24T22:13:39.795Z,42.76
2019-02-24T22:16:09.547Z,42.62
2019-02-24T22:18:39.226Z,42.52
2019-02-24T22:21:08.999Z,42.35
2019-02-24T22:23:38.776Z,42.27
2019-02-24T22:26:08.446Z,42.29
2019-02-24T22:28:38.213Z,41.98
2019-02-24T22:31:08.033Z,41.90
2019-02-24T22:33:37.775Z,42.31
2019-02-24T22:36:07.640Z,42.93
2019-02-24T22:38:37.437Z,42.88
2019-02-24T22:41:07.209Z,42.52
2019-02-24T22:43:36.919Z,43.02
2019-02-24T22:46:06.678Z,42.08
2019-02-24T22:48:36.433Z,42.93
2019-02-24T22:51:06.185Z,42.93
2019-02-24T22:53:35.904Z,42.93
2019-02-24T22:56:05.819Z,42.87
2019-02-24T22:58:35.651Z,43.07
2019-02-24T23:01:06.821Z,42.79
2019-02-24T23:03:37.359Z,43.05
2019-02-24T23:06:07.086Z,43.49
2019-02-24T23:08:37.188Z,44.15
2019-02-24T23:11:06.957Z,44.15
2019-02-24T23:13:36.789Z,45.11
2019-02-24T23:16:06.708Z,45.24
2019-02-24T23:18:36.469Z,44.55
2019-02-24T23:21:06.301Z,44.42
2019-02-24T23:23:36.427Z,44.09
2019-02-24T23:26:06.244Z,44.37
2019-02-24T23:28:36.007Z,43.85
2019-02-24T23:31:05.950Z,43.71
2019-02-24T23:33:36.039Z,43.74
2019-02-24T23:36:05.838Z,43.74
2019-02-24T23:38:35.535Z,43.64
2019-02-24T23:41:05.334Z,43.64
2019-02-24T23:43:35.132Z,43.09
2019-02-24T23:46:04.907Z,43.24
2019-02-24T23:48:34.567Z,43.50
2019-02-24T23:51:04.358Z,44.42
2019-02-24T23:53:34.047Z,44.55
2019-02-24T23:56:03.800Z,44.13
2019-02-24T23:58:33.493Z,44.94
